Time;durP1;ratioP1;P1;durP2;ratioP2;P2;SDS_P1;SDS_P2;PMS_P1;PMS_P2;Temp;Humidity;BMP_temperature;BMP_pressure;BME280_temperature;BME280_humidity;BME280_pressure;Samples;Min_cycle;Max_cycle;Signal;HPM_P1;HPM_P2
2022/09/14 00:00:29;;;;;;;7.10;3.10;;;;;;;14.27;58.41;100140.64;116806;1186;23563;-70
2022/09/14 00:02:56;;;;;;;6.30;3.40;;;;;;;14.26;58.29;100138.73;116809;1189;21910;-58
2022/09/14 00:05:24;;;;;;;4.80;3.20;;;;;;;14.25;58.35;100140.00;116843;1189;22925;-69
2022/09/14 00:07:58;;;;;;;4.40;2.80;;;;;;;14.25;58.35;100142.30;116844;1186;21862;-58
2022/09/14 00:10:27;;;;;;;4.60;2.90;;;;;;;14.24;58.19;100137.73;116829;1186;23584;-59
2022/09/14 00:13:01;;;;;;;4.00;3.10;;;;;;;14.23;58.29;100139.89;116818;1186;22079;-69
2022/09/14 00:15:28;;;;;;;5.20;3.40;;;;;;;14.18;58.28;100149.58;116854;1185;23459;-58
2022/09/14 00:17:56;;;;;;;4.30;3.30;;;;;;;14.11;58.24;100148.01;116794;1188;23657;-71
2022/09/14 00:20:22;;;;;;;4.80;3.00;;;;;;;14.05;58.13;100150.15;116750;1189;23606;-69
2022/09/14 00:22:49;;;;;;;5.00;3.40;;;;;;;14.01;58.18;100151.84;116828;1188;23478;-58
2022/09/14 00:25:17;;;;;;;4.50;3.30;;;;;;;13.98;58.38;100149.98;116855;1188;23585;-68
2022/09/14 00:27:44;;;;;;;4.10;3.30;;;;;;;13.94;58.31;100148.88;116856;1186;23461;-69
2022/09/14 00:30:11;;;;;;;6.60;3.30;;;;;;;13.89;58.40;100152.02;116862;1188;24193;-67
2022/09/14 00:32:38;;;;;;;5.20;3.30;;;;;;;13.84;58.44;100152.52;116810;1189;22832;-69
2022/09/14 00:35:05;;;;;;;4.80;3.40;;;;;;;13.80;58.34;100152.48;116846;1188;23557;-68
2022/09/14 00:37:33;;;;;;;3.80;3.10;;;;;;;13.76;58.40;100153.80;116913;1188;21864;-69
2022/09/14 00:40:00;;;;;;;4.10;2.90;;;;;;;13.73;58.56;100156.73;116896;1186;22934;-70
2022/09/14 00:42:27;;;;;;;4.50;3.40;;;;;;;13.69;58.38;100149.59;116869;1189;23726;-69
2022/09/14 00:45:07;;;;;;;5.30;3.50;;;;;;;13.68;58.44;100142.05;116808;1189;24196;-69
2022/09/14 00:47:33;;;;;;;5.70;3.50;;;;;;;13.64;58.40;100140.40;116873;1182;22937;-58
2022/09/14 00:50:01;;;;;;;4.80;3.90;;;;;;;13.60;58.35;100140.35;116947;1186;23576;-69
2022/09/14 00:52:29;;;;;;;4.50;3.20;;;;;;;13.57;58.63;100137.77;116774;1187;22935;-69
2022/09/14 00:55:05;;;;;;;4.50;3.90;;;;;;;13.55;58.54;100139.25;116892;1189;21970;-58
2022/09/14 00:57:59;;;;;;;4.20;3.20;;;;;;;13.52;58.65;100139.30;116884;1188;22906;-69
2022/09/14 01:00:27;;;;;;;4.10;3.30;;;;;;;13.49;58.76;100139.06;116863;1188;22929;-70
2022/09/14 01:02:54;;;;;;;4.80;3.60;;;;;;;13.43;58.60;100137.98;116893;1186;23496;-58
2022/09/14 01:06:23;;;;;;;5.10;3.70;;;;;;;13.41;58.71;100141.75;116844;1188;21907;-59
2022/09/14 01:09:32;;;;;;;7.30;3.70;;;;;;;13.40;58.98;100141.75;116402;1192;21949;-58
2022/09/14 01:12:08;;;;;;;5.70;4.00;;;;;;;13.39;59.19;100140.19;116786;1186;24182;-59
2022/09/14 01:15:04;;;;;;;5.00;3.80;;;;;;;13.38;59.35;100137.57;116797;1185;21858;-71
2022/09/14 01:17:51;;;;;;;5.00;3.90;;;;;;;13.38;59.36;100138.29;116822;1186;23473;-58
2022/09/14 01:20:32;;;;;;;5.60;4.40;;;;;;;13.40;59.35;100140.70;116831;1189;22068;-69
2022/09/14 01:23:02;;;;;;;5.00;3.70;;;;;;;13.40;59.32;100139.98;116830;1189;23605;-58
2022/09/14 01:26:03;;;;;;;4.30;3.40;;;;;;;13.40;59.21;100138.05;116839;1186;23008;-58
2022/09/14 01:28:39;;;;;;;4.50;3.90;;;;;;;13.39;59.29;100137.38;116802;1187;23496;-58
2022/09/14 01:31:20;;;;;;;4.70;3.70;;;;;;;13.33;59.25;100131.89;116886;1188;23569;-58
2022/09/14 01:33:52;;;;;;;5.40;4.00;;;;;;;13.31;59.17;100130.70;116838;1188;22982;-58
2022/09/14 01:36:26;;;;;;;4.40;3.50;;;;;;;13.29;59.06;100128.65;116815;1186;23447;-58
2022/09/14 01:38:57;;;;;;;4.50;3.30;;;;;;;13.27;59.13;100130.65;116980;1185;23510;-58
2022/09/14 01:41:30;;;;;;;4.50;3.50;;;;;;;13.25;59.17;100131.75;116743;1186;22655;-71
2022/09/14 01:44:05;;;;;;;4.10;3.40;;;;;;;13.22;59.21;100132.71;116906;1186;24178;-58
2022/09/14 01:46:39;;;;;;;5.00;3.80;;;;;;;13.21;59.34;100130.63;116858;1189;21854;-58
2022/09/14 01:49:17;;;;;;;5.20;4.20;;;;;;;13.18;59.09;100130.19;116980;1188;22930;-58
2022/09/14 01:51:47;;;;;;;4.70;4.00;;;;;;;13.14;59.06;100129.58;116825;1189;23551;-68
2022/09/14 01:54:18;;;;;;;4.70;4.10;;;;;;;13.11;59.03;100126.66;116850;1185;22937;-68
2022/09/14 01:56:54;;;;;;;5.30;3.60;;;;;;;13.08;59.12;100127.27;116896;1189;21874;-68
2022/09/14 01:59:25;;;;;;;4.30;3.60;;;;;;;13.07;59.06;100130.64;116883;1188;22995;-58
2022/09/14 02:02:00;;;;;;;6.90;4.00;;;;;;;13.05;59.19;100133.51;116884;1185;22932;-58
2022/09/14 02:05:04;;;;;;;5.60;4.00;;;;;;;13.04;59.00;100130.53;116880;1188;22980;-58
2022/09/14 02:07:31;;;;;;;4.30;3.40;;;;;;;13.02;59.13;100133.95;116833;1186;22182;-58
2022/09/14 02:09:58;;;;;;;6.90;3.60;;;;;;;12.99;58.98;100136.85;116829;1186;22921;-59
2022/09/14 02:12:25;;;;;;;5.40;4.00;;;;;;;12.96;58.94;100139.94;116802;1189;23587;-68
2022/09/14 02:14:52;;;;;;;4.30;3.70;;;;;;;12.92;59.12;100141.61;116746;1186;22949;-58
2022/09/14 02:17:19;;;;;;;4.90;3.80;;;;;;;12.88;59.01;100144.53;116945;1186;24260;-58
2022/09/14 02:19:55;;;;;;;5.40;3.90;;;;;;;12.84;58.99;100145.85;116869;1188;23597;-58
2022/09/14 02:22:22;;;;;;;4.50;3.80;;;;;;;12.82;58.98;100146.80;116956;1189;21861;-67
2022/09/14 02:24:49;;;;;;;5.30;4.00;;;;;;;12.78;59.15;100149.54;116915;1189;23690;-58
2022/09/14 02:27:17;;;;;;;4.80;4.10;;;;;;;12.74;59.07;100152.11;116842;1189;23563;-68
2022/09/14 02:29:44;;;;;;;4.60;3.80;;;;;;;12.70;59.04;100154.66;116947;1187;22936;-58
2022/09/14 02:32:23;;;;;;;6.80;4.30;;;;;;;12.67;58.96;100155.25;116830;1186;24259;-69
2022/09/14 02:35:22;;;;;;;5.00;4.50;;;;;;;12.64;59.06;100156.03;116880;1188;22828;-69
2022/09/14 02:38:08;;;;;;;5.20;4.50;;;;;;;12.63;59.29;100166.78;116873;1186;24165;-68
2022/09/14 02:40:42;;;;;;;5.80;4.50;;;;;;;12.62;59.13;100166.81;116889;1187;24100;-58
2022/09/14 02:43:15;;;;;;;5.40;4.40;;;;;;;12.62;59.28;100168.40;116831;1188;22849;-58
2022/09/14 02:45:50;;;;;;;7.40;4.50;;;;;;;12.62;59.25;100168.75;117018;1186;21856;-57
2022/09/14 02:48:54;;;;;;;6.00;5.10;;;;;;;12.64;59.33;100162.20;117003;1189;24281;-69
2022/09/14 02:51:52;;;;;;;7.40;4.70;;;;;;;12.64;59.22;100153.23;116772;1188;21871;-67
2022/09/14 02:54:42;;;;;;;5.90;4.60;;;;;;;12.66;59.51;100149.66;116773;1186;23657;-57
2022/09/14 02:57:09;;;;;;;8.70;4.90;;;;;;;12.68;59.33;100149.08;117041;1187;23579;-67
2022/09/14 02:59:36;;;;;;;6.30;4.50;;;;;;;12.72;59.34;100144.05;116880;1185;23481;-68
2022/09/14 03:02:02;;;;;;;5.10;4.50;;;;;;;12.69;59.60;100134.77;116990;1187;24176;-57
2022/09/14 03:04:29;;;;;;;5.90;4.60;;;;;;;12.64;59.32;100141.95;116903;1188;22824;-57
2022/09/14 03:06:57;;;;;;;6.80;5.00;;;;;;;12.59;59.40;100143.13;116904;1186;23573;-67
2022/09/14 03:09:23;;;;;;;9.30;4.80;;;;;;;12.57;59.48;100147.23;116952;1188;24310;-57
2022/09/14 03:11:50;;;;;;;6.20;4.80;;;;;;;12.56;59.40;100143.56;116999;1186;23402;-57
2022/09/14 03:14:17;;;;;;;5.70;4.50;;;;;;;12.54;59.35;100141.14;116863;1186;23452;-57
2022/09/14 03:16:44;;;;;;;6.00;4.70;;;;;;;12.53;59.56;100138.88;116933;1188;23557;-67
2022/09/14 03:19:11;;;;;;;7.40;4.90;;;;;;;12.52;59.52;100130.83;116978;1183;22927;-67
2022/09/14 03:21:38;;;;;;;10.60;5.30;;;;;;;12.51;59.49;100137.69;116842;1185;24301;-67
2022/09/14 03:24:06;;;;;;;6.20;4.60;;;;;;;12.51;59.53;100138.93;116882;1188;22193;-67
2022/09/14 03:26:35;;;;;;;6.00;5.00;;;;;;;12.50;59.42;100145.83;116886;1186;21891;-66
2022/09/14 03:29:03;;;;;;;6.40;5.10;;;;;;;12.49;59.55;100142.67;116918;1186;23544;-57
2022/09/14 03:31:30;;;;;;;7.30;5.60;;;;;;;12.51;59.59;100140.88;116995;1188;23605;-67
2022/09/14 03:33:58;;;;;;;5.90;4.60;;;;;;;12.60;59.64;100137.13;116913;1189;21864;-68
2022/09/14 03:36:26;;;;;;;5.70;4.80;;;;;;;12.63;59.61;100140.55;116882;1184;23627;-57
2022/09/14 03:38:55;;;;;;;8.20;5.60;;;;;;;12.65;59.78;100141.40;116833;1189;22937;-67
2022/09/14 03:41:22;;;;;;;6.90;5.30;;;;;;;12.66;59.63;100143.32;116852;1189;23614;-57
2022/09/14 03:43:49;;;;;;;9.50;5.90;;;;;;;12.64;59.74;100145.64;116800;1186;24286;-67
2022/09/14 03:46:23;;;;;;;9.30;5.30;;;;;;;12.64;59.65;100145.30;116930;1189;22934;-57
2022/09/14 03:48:50;;;;;;;7.80;5.50;;;;;;;12.65;59.75;100150.20;116938;1186;21871;-57
2022/09/14 03:51:17;;;;;;;8.90;6.30;;;;;;;12.65;59.88;100147.73;116806;1186;21851;-68
2022/09/14 03:53:44;;;;;;;9.10;6.50;;;;;;;12.67;59.92;100145.59;116958;1188;23560;-67
2022/09/14 03:56:16;;;;;;;8.20;6.40;;;;;;;12.69;59.95;100147.48;116806;1188;23597;-68
2022/09/14 03:58:43;;;;;;;11.00;5.90;;;;;;;12.73;59.92;100150.88;116788;1189;24172;-57
2022/09/14 04:01:14;;;;;;;8.40;5.70;;;;;;;12.75;59.92;100151.55;116858;1189;21926;-69
2022/09/14 04:03:44;;;;;;;10.20;6.50;;;;;;;12.79;59.91;100155.50;116856;1186;22945;-57
2022/09/14 04:06:19;;;;;;;12.50;6.90;;;;;;;12.91;59.64;100159.25;117067;1186;22949;-57
2022/09/14 04:08:46;;;;;;;9.40;6.20;;;;;;;12.91;59.81;100168.05;116797;1189;23555;-58
2022/09/14 04:11:22;;;;;;;9.70;6.20;;;;;;;12.92;59.96;100171.02;116862;1187;23477;-70
2022/09/14 04:13:50;;;;;;;9.40;6.20;;;;;;;12.92;59.85;100168.19;116819;1186;23595;-65
2022/09/14 04:16:24;;;;;;;9.20;6.30;;;;;;;12.94;59.90;100167.80;116825;1186;23720;-69
2022/09/14 04:18:51;;;;;;;8.60;6.40;;;;;;;12.96;59.75;100159.84;116793;1184;21949;-70
2022/09/14 04:21:22;;;;;;;;;;;;;;;12.96;59.76;100162.64;116974;1186;22932;-58
2022/09/14 04:23:53;;;;;;;10.70;6.30;;;;;;;12.97;59.90;100164.73;118866;1184;21822;-70
2022/09/14 04:26:42;;;;;;;8.60;6.00;;;;;;;13.02;59.98;100170.05;119017;1188;22268;-61
2022/09/14 04:29:09;;;;;;;12.70;7.20;;;;;;;13.07;60.12;100166.22;118795;1189;22179;-72
2022/09/14 04:31:36;;;;;;;12.60;6.90;;;;;;;13.15;60.08;100169.91;118510;1188;23452;-58
2022/09/14 04:34:03;;;;;;;9.30;7.50;;;;;;;13.21;60.21;100172.76;116875;1188;22913;-70
2022/09/14 04:36:30;;;;;;;8.20;6.30;;;;;;;13.26;60.23;100172.27;116913;1186;22011;-58
2022/09/14 04:38:58;;;;;;;8.70;7.10;;;;;;;13.31;60.17;100174.40;116922;1188;22931;-70
2022/09/14 04:41:26;;;;;;;9.10;7.00;;;;;;;13.38;60.27;100179.70;116918;1189;24181;-70
2022/09/14 04:43:54;;;;;;;11.80;7.60;;;;;;;13.46;60.26;100183.23;116971;1189;21925;-59
2022/09/14 04:46:23;;;;;;;11.40;7.30;;;;;;;13.53;60.49;100184.78;116914;1187;21855;-58
2022/09/14 04:48:53;;;;;;;11.60;7.30;;;;;;;13.61;60.47;100182.25;116938;1188;22926;-58
2022/09/14 04:51:24;;;;;;;9.90;7.50;;;;;;;13.70;60.44;100175.33;116919;1188;22009;-70
2022/09/14 04:53:52;;;;;;;9.70;7.90;;;;;;;13.79;60.44;100173.12;116992;1186;23471;-70
2022/09/14 04:56:21;;;;;;;10.30;7.60;;;;;;;13.90;60.50;100165.92;117051;1184;21874;-61
2022/09/14 04:58:50;;;;;;;8.80;7.10;;;;;;;14.02;60.44;100167.52;116903;1188;21865;-58
2022/09/14 05:01:19;;;;;;;11.00;7.90;;;;;;;14.14;60.59;100171.23;116932;1188;21920;-58
2022/09/14 05:03:46;;;;;;;9.40;7.50;;;;;;;14.25;60.66;100173.52;116944;1186;23656;-58
2022/09/14 05:06:15;;;;;;;9.20;7.40;;;;;;;14.37;60.61;100175.98;116882;1188;23686;-68
2022/09/14 05:08:42;;;;;;;10.60;7.40;;;;;;;14.50;60.57;100175.77;116904;1185;23453;-69
2022/09/14 05:11:12;;;;;;;11.30;7.70;;;;;;;14.63;60.89;100174.45;116978;1188;22934;-69
2022/09/14 05:13:39;;;;;;;10.40;7.00;;;;;;;14.76;60.49;100170.01;116990;1185;22638;-69
2022/09/14 05:16:10;;;;;;;9.50;7.70;;;;;;;14.89;60.40;100169.77;117051;1188;23459;-59
2022/09/14 05:18:37;;;;;;;10.90;7.70;;;;;;;15.00;60.44;100171.14;116859;1188;22106;-58
2022/09/14 05:21:09;;;;;;;9.20;7.60;;;;;;;15.12;60.56;100168.63;116740;1188;23563;-58
2022/09/14 05:23:36;;;;;;;9.80;7.30;;;;;;;15.22;60.58;100168.98;116822;1189;23918;-68
2022/09/14 05:26:03;;;;;;;11.00;7.60;;;;;;;15.33;60.67;100162.41;116868;1187;21860;-58
2022/09/14 05:28:30;;;;;;;9.80;8.00;;;;;;;15.47;60.58;100167.42;117024;1183;21861;-68
2022/09/14 05:30:57;;;;;;;9.00;6.90;;;;;;;15.58;60.32;100165.39;118316;1188;23489;-58
2022/09/14 05:33:24;;;;;;;9.60;7.40;;;;;;;15.73;60.47;100163.98;116677;1189;22954;-58
2022/09/14 05:35:51;;;;;;;8.10;6.80;;;;;;;15.88;60.14;100167.68;116735;1188;23563;-68
2022/09/14 05:38:18;;;;;;;9.60;6.90;;;;;;;16.03;60.27;100168.39;116724;1189;24317;-58
2022/09/14 05:40:47;;;;;;;8.50;6.70;;;;;;;16.19;60.12;100170.60;116745;1186;22947;-68
2022/09/14 05:43:16;;;;;;;9.00;6.10;;;;;;;16.36;59.77;100167.81;116730;1188;21861;-58
2022/09/14 05:45:43;;;;;;;9.00;6.60;;;;;;;16.54;60.16;100166.39;116865;1187;23558;-59
2022/09/14 05:48:09;;;;;;;7.40;6.00;;;;;;;16.72;59.79;100163.17;116951;1182;22928;-58
2022/09/14 05:50:36;;;;;;;10.80;6.00;;;;;;;16.90;59.44;100163.70;116935;1186;23521;-70
2022/09/14 05:53:03;;;;;;;9.10;6.30;;;;;;;17.08;59.27;100165.25;117015;1188;22336;-61
2022/09/14 05:55:30;;;;;;;9.60;6.30;;;;;;;17.26;59.17;100170.33;116991;1187;22927;-58
2022/09/14 05:57:57;;;;;;;8.20;6.00;;;;;;;17.43;58.84;100173.88;116921;1186;23557;-69
2022/09/14 06:00:24;;;;;;;7.40;6.20;;;;;;;17.60;58.59;100175.59;116953;1188;23598;-69
2022/09/14 06:02:52;;;;;;;9.60;6.40;;;;;;;17.76;58.30;100175.06;116884;1189;21866;-69
2022/09/14 06:05:20;;;;;;;11.20;6.00;;;;;;;17.90;57.79;100172.81;116977;1186;23558;-69
2022/09/14 06:07:53;;;;;;;10.20;6.20;;;;;;;18.03;57.21;100169.60;117004;1188;21964;-60
2022/09/14 06:10:20;;;;;;;7.20;5.50;;;;;;;18.14;57.08;100171.20;116877;1186;22099;-57
2022/09/14 06:12:48;;;;;;;7.40;5.20;;;;;;;18.29;57.23;100170.66;116867;1185;22948;-58
2022/09/14 06:15:23;;;;;;;8.60;5.70;;;;;;;18.53;56.87;100170.98;116665;1189;21864;-68
2022/09/14 06:17:50;;;;;;;8.70;5.70;;;;;;;18.66;56.47;100173.88;116811;1189;21864;-68
2022/09/14 06:20:17;;;;;;;6.50;5.30;;;;;;;18.83;56.64;100177.33;116727;1189;21861;-58
2022/09/14 06:22:44;;;;;;;5.90;5.00;;;;;;;18.99;55.91;100181.86;116772;1189;21883;-58
2022/09/14 06:25:11;;;;;;;6.80;5.60;;;;;;;19.15;55.22;100177.02;116807;1189;22837;-70
2022/09/14 06:27:38;;;;;;;6.20;5.00;;;;;;;19.35;55.69;100183.09;116919;1186;24272;-68
2022/09/14 06:30:05;;;;;;;6.90;5.20;;;;;;;19.51;55.24;100184.22;116678;1188;21874;-58
2022/09/14 06:32:33;;;;;;;6.20;5.20;;;;;;;19.66;54.85;100183.95;116948;1189;21864;-69
2022/09/14 06:35:00;;;;;;;7.90;4.90;;;;;;;19.79;54.70;100185.92;117897;1188;21725;-70
2022/09/14 06:37:26;;;;;;;5.60;4.70;;;;;;;19.91;54.38;100184.95;118530;1188;23465;-60
2022/09/14 06:39:54;;;;;;;6.90;4.70;;;;;;;19.99;54.02;100191.27;118875;1187;21886;-60
2022/09/14 06:42:21;;;;;;;5.60;4.60;;;;;;;20.07;53.63;100193.73;117260;1188;22924;-68
2022/09/14 06:44:48;;;;;;;4.80;4.10;;;;;;;20.20;53.58;100190.55;116871;1188;23455;-60
2022/09/14 06:47:15;;;;;;;5.30;4.00;;;;;;;20.34;53.20;100190.98;116865;1189;22629;-69
2022/09/14 06:49:42;;;;;;;5.40;4.30;;;;;;;20.50;53.38;100191.67;116814;1185;21961;-59
2022/09/14 06:52:09;;;;;;;5.60;4.30;;;;;;;20.65;52.47;100192.97;116862;1188;22388;-60
2022/09/14 06:54:36;;;;;;;4.70;3.70;;;;;;;20.81;53.03;100189.25;116932;1188;21869;-67
2022/09/14 06:57:03;;;;;;;7.10;3.90;;;;;;;21.03;52.80;100184.08;117023;1186;22850;-71
2022/09/14 06:59:30;;;;;;;5.60;4.00;;;;;;;21.18;52.62;100186.39;116680;1190;23659;-70
2022/09/14 07:01:57;;;;;;;6.30;3.60;;;;;;;21.25;52.07;100183.44;116828;1184;21829;-70
2022/09/14 07:04:24;;;;;;;6.00;3.70;;;;;;;21.32;51.76;100178.22;116744;1189;21869;-73
2022/09/14 07:06:52;;;;;;;4.40;3.50;;;;;;;21.35;50.39;100177.67;116707;1188;23656;-60
2022/09/14 07:09:22;;;;;;;9.10;4.20;;;;;;;21.48;51.38;100174.02;117130;1189;21985;-73
2022/09/14 07:11:49;;;;;;;5.90;4.20;;;;;;;21.60;50.54;100179.95;118473;1186;21867;-75
2022/09/14 07:14:16;;;;;;;5.00;4.30;;;;;;;21.72;50.03;100181.20;116723;1188;23958;-71
2022/09/14 07:16:43;;;;;;;5.30;4.50;;;;;;;21.80;50.83;100185.83;116835;1184;21863;-69
2022/09/14 07:19:18;;;;;;;10.00;5.40;;;;;;;21.91;50.71;100187.52;116713;1188;23688;-62
2022/09/14 07:21:45;;;;;;;7.20;4.60;;;;;;;22.02;50.33;100185.56;116718;1186;21867;-61
2022/09/14 07:24:13;;;;;;;10.50;4.80;;;;;;;22.22;50.70;100182.55;116850;1189;21886;-61
2022/09/14 07:26:41;;;;;;;6.80;4.70;;;;;;;22.41;50.02;100174.48;116910;1188;22843;-58
2022/09/14 07:29:13;;;;;;;6.00;4.70;;;;;;;22.57;48.44;100170.64;116847;1189;21857;-75
2022/09/14 07:31:43;;;;;;;6.70;4.80;;;;;;;22.71;48.99;100173.48;116957;1186;23486;-70
2022/09/14 07:34:14;;;;;;;7.10;4.80;;;;;;;22.85;48.58;100169.70;116893;1189;23560;-58
2022/09/14 07:36:41;;;;;;;6.00;4.30;;;;;;;23.02;48.70;100167.84;117001;1185;21911;-68
2022/09/14 07:39:11;;;;;;;12.80;7.00;;;;;;;23.13;48.49;100165.13;117002;1188;22837;-70
2022/09/14 07:41:38;;;;;;;6.90;5.70;;;;;;;23.23;47.70;100163.06;116860;1188;22619;-70
2022/09/14 07:44:06;;;;;;;6.40;4.70;;;;;;;23.38;47.95;100163.98;116904;1187;23557;-70
2022/09/14 07:46:40;;;;;;;8.70;6.60;;;;;;;23.51;47.52;100158.44;116974;1184;23017;-71
2022/09/14 07:49:08;;;;;;;7.30;5.20;;;;;;;23.60;45.45;100161.36;116888;1188;21870;-70
2022/09/14 07:51:35;;;;;;;5.70;4.50;;;;;;;23.71;47.24;100160.45;116961;1184;23540;-71
2022/09/14 07:54:04;;;;;;;7.70;4.90;;;;;;;23.77;47.66;100156.40;116911;1188;22615;-63
2022/09/14 07:56:38;;;;;;;7.40;4.60;;;;;;;23.84;46.37;100156.13;116943;1184;21851;-63
2022/09/14 07:59:12;;;;;;;10.30;3.70;;;;;;;23.94;46.27;100150.23;116910;1183;22931;-72
2022/09/14 08:02:01;;;;;;;9.00;4.30;;;;;;;24.07;46.79;100148.96;116861;1188;21866;-71
2022/09/14 08:04:28;;;;;;;6.60;4.20;;;;;;;24.22;45.87;100145.89;116768;1186;22182;-71
2022/09/14 08:06:56;;;;;;;10.30;4.50;;;;;;;24.38;45.65;100144.39;117491;1189;23618;-64
2022/09/14 08:09:24;;;;;;;7.50;3.60;;;;;;;24.54;45.25;100143.91;116797;1184;21861;-72
2022/09/14 08:11:51;;;;;;;4.40;3.30;;;;;;;24.66;44.18;100144.31;117886;1184;23564;-71
2022/09/14 08:14:19;;;;;;;6.30;3.30;;;;;;;24.70;43.53;100138.45;116865;1188;24649;-64
2022/09/14 08:16:46;;;;;;;4.20;2.70;;;;;;;24.77;44.21;100139.20;116854;1186;21868;-63
2022/09/14 08:19:15;;;;;;;4.50;2.90;;;;;;;24.83;44.12;100135.48;116779;1184;22935;-63
2022/09/14 08:21:42;;;;;;;5.00;3.20;;;;;;;24.89;43.59;100128.91;117669;1188;22532;-64
2022/09/14 08:24:14;;;;;;;6.60;2.60;;;;;;;24.91;42.51;100125.17;116867;1188;21871;-63
2022/09/14 08:26:42;;;;;;;7.10;3.10;;;;;;;25.07;43.94;100124.70;117088;1185;21964;-73
2022/09/14 08:29:11;;;;;;;5.80;3.40;;;;;;;25.24;43.76;100124.66;117190;1186;22649;-65
2022/09/14 08:31:39;;;;;;;4.00;3.10;;;;;;;25.35;42.84;100122.34;116919;1188;23553;-64
2022/09/14 08:34:08;;;;;;;4.00;2.50;;;;;;;25.41;43.01;100124.59;117399;1182;23482;-73
2022/09/14 08:36:37;;;;;;;6.30;2.60;;;;;;;25.48;41.73;100124.04;116689;1187;21858;-63
2022/09/14 08:39:07;;;;;;;4.40;2.50;;;;;;;25.62;41.85;100118.24;117039;1188;23453;-62
2022/09/14 08:41:40;;;;;;;;;;;;;;;25.76;42.19;100113.55;116910;1184;21841;-74
2022/09/14 08:44:10;;;;;;;11.90;3.00;;;;;;;25.79;41.36;100115.16;116956;1186;22499;-73
2022/09/14 08:46:43;;;;;;;5.50;2.40;;;;;;;25.83;42.34;100110.34;116893;1186;23278;-73
2022/09/14 08:49:18;;;;;;;3.60;2.50;;;;;;;25.98;41.44;100106.28;116933;1186;23653;-72
2022/09/14 08:51:45;;;;;;;2.60;2.00;;;;;;;26.09;41.83;100102.83;116934;1187;22918;-73
2022/09/14 08:54:12;;;;;;;3.00;2.00;;;;;;;26.17;41.57;100099.35;116719;1188;21855;-73
2022/09/14 08:56:41;;;;;;;5.70;2.50;;;;;;;26.24;40.97;100095.52;116731;1185;22895;-73
2022/09/14 08:59:43;;;;;;;6.30;2.40;;;;;;;26.31;40.71;100092.46;116812;1188;23475;-74
2022/09/14 09:02:23;;;;;;;3.20;2.60;;;;;;;26.40;40.85;100094.00;116824;1189;22428;-73
2022/09/14 09:05:35;;;;;;;4.60;2.50;;;;;;;26.43;40.06;100089.29;116853;1184;22814;-73
2022/09/14 09:08:44;;;;;;;2.30;1.70;;;;;;;26.54;39.87;100085.52;116904;1189;21860;-62
2022/09/14 09:11:29;;;;;;;7.20;1.90;;;;;;;26.68;38.85;100081.39;116940;1187;21861;-62
2022/09/14 09:14:00;;;;;;;5.50;2.40;;;;;;;26.76;38.13;100081.46;116909;1189;21867;-70
2022/09/14 09:16:28;;;;;;;3.30;2.10;;;;;;;26.83;39.48;100076.22;116792;1189;21907;-71
2022/09/14 09:19:06;;;;;;;3.40;2.00;;;;;;;26.93;39.34;100076.42;116891;1189;21869;-70
2022/09/14 09:21:42;;;;;;;2.50;1.70;;;;;;;26.99;37.88;100079.52;116784;1187;21904;-71
2022/09/14 09:24:18;;;;;;;4.40;2.10;;;;;;;27.02;39.03;100072.80;116816;1188;22830;-58
2022/09/14 09:26:45;;;;;;;2.80;1.80;;;;;;;27.08;38.55;100075.91;116832;1189;22331;-60
2022/09/14 09:29:20;;;;;;;2.20;1.30;;;;;;;27.14;38.45;100068.55;116774;1188;23542;-70
2022/09/14 09:31:58;;;;;;;3.60;1.40;;;;;;;27.29;38.85;100066.89;116823;1185;21863;-70
2022/09/14 09:34:34;;;;;;;7.50;1.50;;;;;;;27.43;38.10;100067.29;116833;1187;22975;-70
2022/09/14 09:37:21;;;;;;;2.30;1.50;;;;;;;27.44;38.12;100063.95;116862;1186;24157;-60
2022/09/14 09:39:56;;;;;;;1.60;1.30;;;;;;;27.39;37.41;100059.52;116923;1187;23011;-60
2022/09/14 09:42:29;;;;;;;2.10;1.20;;;;;;;27.36;36.93;100057.31;116838;1184;23012;-61
2022/09/14 09:45:09;;;;;;;3.80;1.30;;;;;;;27.42;37.07;100062.33;116932;1189;21871;-60
2022/09/14 09:47:40;;;;;;;4.30;1.80;;;;;;;27.49;34.98;100063.39;116881;1186;24246;-60
2022/09/14 09:50:26;;;;;;;3.60;1.20;;;;;;;27.44;35.80;100062.52;116898;1187;23455;-60
2022/09/14 09:53:02;;;;;;;4.80;2.00;;;;;;;27.39;36.43;100058.98;116866;1184;22929;-60
2022/09/14 09:55:40;;;;;;;4.00;1.60;;;;;;;27.40;35.94;100051.16;116904;1187;24179;-70
2022/09/14 09:58:34;;;;;;;2.10;1.40;;;;;;;27.41;35.38;100045.66;116761;1184;23602;-60
2022/09/14 10:01:22;;;;;;;3.70;1.70;;;;;;;27.50;35.52;100050.64;117043;1187;21859;-60
2022/09/14 10:04:04;;;;;;;2.80;1.80;;;;;;;27.61;36.19;100038.48;116933;1188;21849;-60
2022/09/14 10:06:34;;;;;;;5.60;2.20;;;;;;;27.66;35.90;100042.21;116699;1189;21869;-60
2022/09/14 10:09:22;;;;;;;2.20;1.90;;;;;;;27.84;36.43;100046.33;116873;1187;21863;-60
2022/09/14 10:11:59;;;;;;;8.00;2.30;;;;;;;27.93;36.11;100050.30;117114;1188;21910;-61
2022/09/14 10:14:32;;;;;;;5.10;2.20;;;;;;;27.88;35.53;100047.47;116946;1187;21906;-61
2022/09/14 10:17:27;;;;;;;6.00;2.00;;;;;;;27.82;35.40;100043.35;116939;1187;23481;-73
2022/09/14 10:19:57;;;;;;;4.20;2.20;;;;;;;27.76;34.98;100044.04;116961;1187;21869;-58
2022/09/14 10:22:39;;;;;;;5.00;2.60;;;;;;;27.79;33.66;100045.58;116942;1185;24244;-72
2022/09/14 10:25:14;;;;;;;6.80;2.60;;;;;;;27.71;34.60;100043.94;116940;1185;21996;-73
2022/09/14 10:27:55;;;;;;;3.50;2.10;;;;;;;27.59;34.20;100044.42;116918;1187;22867;-71
2022/09/14 10:30:49;;;;;;;2.60;1.90;;;;;;;27.68;35.79;100044.95;116958;1185;24227;-71
2022/09/14 10:33:23;;;;;;;3.80;2.10;;;;;;;27.76;36.41;100039.56;116793;1186;22089;-70
2022/09/14 10:36:14;;;;;;;4.90;2.00;;;;;;;27.81;35.85;100037.64;116905;1183;22894;-72
2022/09/14 10:38:47;;;;;;;12.70;2.30;;;;;;;27.96;35.47;100034.45;116902;1186;23555;-72
2022/09/14 10:41:26;;;;;;;4.60;2.10;;;;;;;28.06;35.75;100028.70;116924;1187;21863;-63
2022/09/14 10:44:33;;;;;;;4.00;2.00;;;;;;;28.12;35.39;100027.96;116837;1187;23001;-61
2022/09/14 10:47:37;;;;;;;2.10;1.40;;;;;;;28.08;34.48;100027.26;117018;1184;21857;-72
2022/09/14 10:50:25;;;;;;;4.20;2.10;;;;;;;28.15;34.70;100027.88;116948;1187;21851;-72
2022/09/14 10:53:25;;;;;;;4.60;1.80;;;;;;;28.25;34.87;100033.10;116971;1184;22632;-72
2022/09/14 10:56:06;;;;;;;4.90;1.90;;;;;;;28.30;34.42;100030.33;117012;1187;22832;-61
2022/09/14 10:58:44;;;;;;;3.20;2.00;;;;;;;28.18;32.96;100035.37;116990;1188;23562;-62
2022/09/14 11:01:43;;;;;;;2.90;1.90;;;;;;;28.04;34.32;100030.18;116931;1188;22945;-62
2022/09/14 11:04:32;;;;;;;3.10;1.70;;;;;;;27.91;33.93;100023.71;117000;1189;21903;-62
2022/09/14 11:06:59;;;;;;;3.20;2.00;;;;;;;27.95;34.79;100018.55;117072;1188;22147;-74
2022/09/14 11:09:32;;;;;;;3.90;1.70;;;;;;;27.99;34.19;100018.58;117073;1188;21863;-69
2022/09/14 11:12:14;;;;;;;3.00;1.50;;;;;;;28.03;35.30;100012.70;117064;1184;21863;-62
2022/09/14 11:15:07;;;;;;;7.00;1.10;;;;;;;28.19;34.97;100009.35;116989;1187;21861;-64
2022/09/14 11:17:43;;;;;;;2.40;1.30;;;;;;;28.25;33.05;100008.30;116996;1187;22630;-72
2022/09/14 11:20:34;;;;;;;2.30;1.20;;;;;;;28.28;33.76;100013.90;117080;1188;21886;-62
2022/09/14 11:23:11;;;;;;;3.30;1.50;;;;;;;28.36;33.54;100006.36;116949;1186;23667;-72
2022/09/14 11:25:38;;;;;;;;;;;;;;;28.49;33.96;99999.54;117020;1186;21843;-72
2022/09/14 11:28:24;;;;;;;3.30;1.10;;;;;;;28.51;33.07;99993.59;116952;1187;21861;-62
2022/09/14 11:31:25;;;;;;;1.40;1.00;;;;;;;28.50;32.89;99997.04;116879;1188;21911;-65
2022/09/14 11:34:05;;;;;;;1.40;0.90;;;;;;;28.44;32.02;99993.27;116913;1189;21867;-71
2022/09/14 11:36:36;;;;;;;2.10;1.50;;;;;;;28.35;32.11;99996.86;116800;1189;23563;-71
2022/09/14 11:39:16;;;;;;;2.70;0.90;;;;;;;28.34;33.00;99995.30;116956;1189;22927;-62
2022/09/14 11:41:52;;;;;;;1.30;0.90;;;;;;;28.38;32.02;99991.71;116882;1188;21914;-71
2022/09/14 11:44:26;;;;;;;1.70;1.10;;;;;;;28.41;32.37;99996.27;117003;1187;21857;-63